sensor_id;sensor_type;location;lat;lon;timestamp;P1;durP1;ratioP1;P2;durP2;ratioP2
38264;SDS011;24062;47.480;8.768;2022-11-11T00:01:17;11.37;;;10.20;;
38264;SDS011;24062;47.480;8.768;2022-11-11T00:03:44;12.30;;;10.57;;
38264;SDS011;24062;47.480;8.768;2022-11-11T00:06:12;10.27;;;9.23;;
38264;SDS011;24062;47.480;8.768;2022-11-11T00:08:40;11.20;;;9.63;;
38264;SDS011;24062;47.480;8.768;2022-11-11T00:11:09;11.80;;;10.60;;
38264;SDS011;24062;47.480;8.768;2022-11-11T00:13:37;12.83;;;10.60;;
38264;SDS011;24062;47.480;8.768;2022-11-11T00:16:06;10.93;;;8.67;;
38264;SDS011;24062;47.480;8.768;2022-11-11T00:18:34;11.27;;;10.07;;
38264;SDS011;24062;47.480;8.768;2022-11-11T00:21:19;11.00;;;9.77;;
38264;SDS011;24062;47.480;8.768;2022-11-11T00:24:12;9.20;;;8.30;;
38264;SDS011;24062;47.480;8.768;2022-11-11T00:27:05;10.10;;;9.10;;
38264;SDS011;24062;47.480;8.768;2022-11-11T00:29:31;9.30;;;8.40;;
38264;SDS011;24062;47.480;8.768;2022-11-11T00:31:58;9.37;;;8.57;;
38264;SDS011;24062;47.480;8.768;2022-11-11T00:34:43;9.93;;;9.00;;
38264;SDS011;24062;47.480;8.768;2022-11-11T00:37:30;12.87;;;9.20;;
38264;SDS011;24062;47.480;8.768;2022-11-11T00:39:57;10.30;;;9.13;;
38264;SDS011;24062;47.480;8.768;2022-11-11T00:42:25;10.10;;;9.10;;
38264;SDS011;24062;47.480;8.768;2022-11-11T00:44:52;9.50;;;8.70;;
38264;SDS011;24062;47.480;8.768;2022-11-11T00:47:19;10.43;;;9.33;;
38264;SDS011;24062;47.480;8.768;2022-11-11T00:50:05;9.60;;;8.80;;
38264;SDS011;24062;47.480;8.768;2022-11-11T00:52:53;9.07;;;8.27;;
38264;SDS011;24062;47.480;8.768;2022-11-11T00:55:20;9.30;;;8.40;;
38264;SDS011;24062;47.480;8.768;2022-11-11T00:57:48;9.97;;;8.93;;
38264;SDS011;24062;47.480;8.768;2022-11-11T01:00:15;9.43;;;8.53;;
38264;SDS011;24062;47.480;8.768;2022-11-11T01:02:42;8.70;;;7.90;;
38264;SDS011;24062;47.480;8.768;2022-11-11T01:05:09;9.13;;;8.30;;
38264;SDS011;24062;47.480;8.768;2022-11-11T01:07:36;8.27;;;7.50;;
38264;SDS011;24062;47.480;8.768;2022-11-11T01:10:03;9.70;;;8.70;;
38264;SDS011;24062;47.480;8.768;2022-11-11T01:12:30;9.63;;;8.70;;
38264;SDS011;24062;47.480;8.768;2022-11-11T01:14:59;9.70;;;8.23;;
38264;SDS011;24062;47.480;8.768;2022-11-11T01:17:25;8.87;;;8.07;;
38264;SDS011;24062;47.480;8.768;2022-11-11T01:19:53;9.10;;;7.90;;
38264;SDS011;24062;47.480;8.768;2022-11-11T01:22:20;7.77;;;7.13;;
38264;SDS011;24062;47.480;8.768;2022-11-11T01:24:47;8.70;;;7.73;;
38264;SDS011;24062;47.480;8.768;2022-11-11T01:27:14;7.80;;;7.10;;
38264;SDS011;24062;47.480;8.768;2022-11-11T01:29:41;9.00;;;8.20;;
38264;SDS011;24062;47.480;8.768;2022-11-11T01:32:09;9.10;;;8.00;;
38264;SDS011;24062;47.480;8.768;2022-11-11T01:34:36;8.83;;;7.93;;
38264;SDS011;24062;47.480;8.768;2022-11-11T01:37:03;7.87;;;7.07;;
38264;SDS011;24062;47.480;8.768;2022-11-11T01:39:30;8.10;;;7.40;;
38264;SDS011;24062;47.480;8.768;2022-11-11T01:41:57;8.97;;;8.13;;
38264;SDS011;24062;47.480;8.768;2022-11-11T01:44:40;9.03;;;8.10;;
38264;SDS011;24062;47.480;8.768;2022-11-11T01:47:10;8.53;;;7.73;;
38264;SDS011;24062;47.480;8.768;2022-11-11T01:49:38;8.93;;;8.03;;
38264;SDS011;24062;47.480;8.768;2022-11-11T01:52:10;8.50;;;7.70;;
38264;SDS011;24062;47.480;8.768;2022-11-11T01:54:41;8.63;;;7.73;;
38264;SDS011;24062;47.480;8.768;2022-11-11T01:57:13;11.40;;;9.10;;
38264;SDS011;24062;47.480;8.768;2022-11-11T01:59:45;8.50;;;7.70;;
38264;SDS011;24062;47.480;8.768;2022-11-11T02:02:17;9.60;;;8.70;;
38264;SDS011;24062;47.480;8.768;2022-11-11T02:04:47;9.43;;;8.50;;
38264;SDS011;24062;47.480;8.768;2022-11-11T02:07:32;9.27;;;8.37;;
38264;SDS011;24062;47.480;8.768;2022-11-11T02:10:00;9.80;;;8.80;;
38264;SDS011;24062;47.480;8.768;2022-11-11T02:12:30;9.10;;;8.30;;
38264;SDS011;24062;47.480;8.768;2022-11-11T02:15:14;8.97;;;8.20;;
38264;SDS011;24062;47.480;8.768;2022-11-11T02:17:43;9.57;;;8.57;;
38264;SDS011;24062;47.480;8.768;2022-11-11T02:20:13;9.03;;;8.13;;
38264;SDS011;24062;47.480;8.768;2022-11-11T02:22:43;8.87;;;8.10;;
38264;SDS011;24062;47.480;8.768;2022-11-11T02:25:17;9.47;;;8.40;;
38264;SDS011;24062;47.480;8.768;2022-11-11T02:27:49;8.27;;;7.57;;
38264;SDS011;24062;47.480;8.768;2022-11-11T02:30:18;11.70;;;8.63;;
38264;SDS011;24062;47.480;8.768;2022-11-11T02:32:46;11.37;;;8.33;;
38264;SDS011;24062;47.480;8.768;2022-11-11T02:35:15;8.10;;;7.20;;
38264;SDS011;24062;47.480;8.768;2022-11-11T02:37:45;9.73;;;8.83;;
38264;SDS011;24062;47.480;8.768;2022-11-11T02:40:16;8.77;;;7.60;;
38264;SDS011;24062;47.480;8.768;2022-11-11T02:42:46;9.33;;;8.10;;
38264;SDS011;24062;47.480;8.768;2022-11-11T02:45:13;13.03;;;8.67;;
38264;SDS011;24062;47.480;8.768;2022-11-11T02:47:40;11.03;;;8.80;;
38264;SDS011;24062;47.480;8.768;2022-11-11T02:50:07;9.87;;;8.87;;
38264;SDS011;24062;47.480;8.768;2022-11-11T02:52:35;11.93;;;9.13;;
38264;SDS011;24062;47.480;8.768;2022-11-11T02:55:02;12.33;;;10.07;;
38264;SDS011;24062;47.480;8.768;2022-11-11T02:57:31;12.03;;;9.23;;
38264;SDS011;24062;47.480;8.768;2022-11-11T02:59:58;11.73;;;9.30;;
38264;SDS011;24062;47.480;8.768;2022-11-11T03:02:27;15.00;;;10.17;;
38264;SDS011;24062;47.480;8.768;2022-11-11T03:04:55;16.13;;;11.47;;
38264;SDS011;24062;47.480;8.768;2022-11-11T03:07:23;20.47;;;11.43;;
38264;SDS011;24062;47.480;8.768;2022-11-11T03:09:50;19.60;;;10.80;;
38264;SDS011;24062;47.480;8.768;2022-11-11T03:12:17;17.03;;;11.10;;
38264;SDS011;24062;47.480;8.768;2022-11-11T03:14:45;20.33;;;12.50;;
38264;SDS011;24062;47.480;8.768;2022-11-11T03:17:12;12.80;;;9.93;;
38264;SDS011;24062;47.480;8.768;2022-11-11T03:19:57;19.30;;;11.30;;
38264;SDS011;24062;47.480;8.768;2022-11-11T03:22:37;19.70;;;12.23;;
38264;SDS011;24062;47.480;8.768;2022-11-11T03:25:05;20.03;;;12.63;;
38264;SDS011;24062;47.480;8.768;2022-11-11T03:27:50;20.23;;;10.43;;
38264;SDS011;24062;47.480;8.768;2022-11-11T03:30:18;28.10;;;13.23;;
38264;SDS011;24062;47.480;8.768;2022-11-11T03:32:45;27.10;;;13.53;;
38264;SDS011;24062;47.480;8.768;2022-11-11T03:35:11;29.40;;;15.93;;
38264;SDS011;24062;47.480;8.768;2022-11-11T03:37:39;30.80;;;16.53;;
38264;SDS011;24062;47.480;8.768;2022-11-11T03:40:23;30.33;;;15.20;;
38264;SDS011;24062;47.480;8.768;2022-11-11T03:42:50;28.77;;;15.20;;
38264;SDS011;24062;47.480;8.768;2022-11-11T03:45:18;28.67;;;15.17;;
38264;SDS011;24062;47.480;8.768;2022-11-11T03:47:45;32.47;;;15.50;;
38264;SDS011;24062;47.480;8.768;2022-11-11T03:50:12;34.00;;;16.17;;
38264;SDS011;24062;47.480;8.768;2022-11-11T03:52:39;31.37;;;16.17;;
38264;SDS011;24062;47.480;8.768;2022-11-11T03:55:07;33.73;;;16.13;;
38264;SDS011;24062;47.480;8.768;2022-11-11T03:57:37;30.87;;;15.67;;
38264;SDS011;24062;47.480;8.768;2022-11-11T04:00:06;31.63;;;17.07;;
38264;SDS011;24062;47.480;8.768;2022-11-11T04:02:35;31.97;;;16.70;;
38264;SDS011;24062;47.480;8.768;2022-11-11T04:05:20;29.90;;;16.10;;
38264;SDS011;24062;47.480;8.768;2022-11-11T04:08:04;35.33;;;15.77;;
38264;SDS011;24062;47.480;8.768;2022-11-11T04:10:51;31.50;;;16.30;;
38264;SDS011;24062;47.480;8.768;2022-11-11T04:13:18;29.10;;;16.90;;
38264;SDS011;24062;47.480;8.768;2022-11-11T04:16:02;31.63;;;16.87;;
38264;SDS011;24062;47.480;8.768;2022-11-11T04:18:34;39.83;;;18.40;;
38264;SDS011;24062;47.480;8.768;2022-11-11T04:21:19;39.50;;;17.23;;
38264;SDS011;24062;47.480;8.768;2022-11-11T04:24:05;36.10;;;17.53;;
38264;SDS011;24062;47.480;8.768;2022-11-11T04:26:46;40.77;;;20.07;;
38264;SDS011;24062;47.480;8.768;2022-11-11T04:29:13;40.60;;;19.30;;
38264;SDS011;24062;47.480;8.768;2022-11-11T04:31:55;35.67;;;17.47;;
38264;SDS011;24062;47.480;8.768;2022-11-11T04:34:42;42.03;;;19.37;;
38264;SDS011;24062;47.480;8.768;2022-11-11T04:37:10;43.90;;;20.37;;
38264;SDS011;24062;47.480;8.768;2022-11-11T04:39:37;40.67;;;17.53;;
38264;SDS011;24062;47.480;8.768;2022-11-11T04:42:22;39.80;;;17.60;;
38264;SDS011;24062;47.480;8.768;2022-11-11T04:44:49;41.07;;;18.53;;
38264;SDS011;24062;47.480;8.768;2022-11-11T04:47:34;36.77;;;19.50;;
38264;SDS011;24062;47.480;8.768;2022-11-11T04:50:02;32.57;;;17.90;;
38264;SDS011;24062;47.480;8.768;2022-11-11T04:52:30;41.10;;;19.37;;
38264;SDS011;24062;47.480;8.768;2022-11-11T04:54:58;34.03;;;17.90;;
38264;SDS011;24062;47.480;8.768;2022-11-11T04:57:43;41.13;;;19.77;;
38264;SDS011;24062;47.480;8.768;2022-11-11T05:00:12;41.63;;;21.40;;
38264;SDS011;24062;47.480;8.768;2022-11-11T05:02:40;31.13;;;17.77;;
38264;SDS011;24062;47.480;8.768;2022-11-11T05:05:26;38.30;;;19.13;;
38264;SDS011;24062;47.480;8.768;2022-11-11T05:08:14;34.80;;;16.57;;
38264;SDS011;24062;47.480;8.768;2022-11-11T05:10:58;32.23;;;17.00;;
38264;SDS011;24062;47.480;8.768;2022-11-11T05:13:25;33.13;;;16.90;;
38264;SDS011;24062;47.480;8.768;2022-11-11T05:16:10;30.77;;;16.90;;
38264;SDS011;24062;47.480;8.768;2022-11-11T05:19:04;25.63;;;15.37;;
38264;SDS011;24062;47.480;8.768;2022-11-11T05:21:50;27.27;;;15.47;;
38264;SDS011;24062;47.480;8.768;2022-11-11T05:24:20;20.90;;;13.87;;
38264;SDS011;24062;47.480;8.768;2022-11-11T05:27:04;23.50;;;15.20;;
38264;SDS011;24062;47.480;8.768;2022-11-11T05:29:31;23.40;;;15.73;;
38264;SDS011;24062;47.480;8.768;2022-11-11T05:31:58;23.40;;;15.03;;
38264;SDS011;24062;47.480;8.768;2022-11-11T05:34:25;19.83;;;13.73;;
38264;SDS011;24062;47.480;8.768;2022-11-11T05:36:53;19.03;;;13.43;;
38264;SDS011;24062;47.480;8.768;2022-11-11T05:39:20;21.43;;;14.07;;
38264;SDS011;24062;47.480;8.768;2022-11-11T05:41:46;17.40;;;12.67;;
38264;SDS011;24062;47.480;8.768;2022-11-11T05:44:13;21.10;;;14.60;;
38264;SDS011;24062;47.480;8.768;2022-11-11T05:46:40;26.10;;;14.10;;
38264;SDS011;24062;47.480;8.768;2022-11-11T05:49:07;24.63;;;13.90;;
38264;SDS011;24062;47.480;8.768;2022-11-11T05:51:40;20.50;;;13.60;;
38264;SDS011;24062;47.480;8.768;2022-11-11T05:54:08;19.37;;;14.97;;
38264;SDS011;24062;47.480;8.768;2022-11-11T05:56:35;31.37;;;14.20;;
38264;SDS011;24062;47.480;8.768;2022-11-11T05:59:02;23.33;;;14.30;;
38264;SDS011;24062;47.480;8.768;2022-11-11T06:01:29;18.23;;;14.07;;
38264;SDS011;24062;47.480;8.768;2022-11-11T06:03:56;22.87;;;15.60;;
38264;SDS011;24062;47.480;8.768;2022-11-11T06:06:23;20.87;;;13.57;;
38264;SDS011;24062;47.480;8.768;2022-11-11T06:08:50;18.37;;;14.70;;
38264;SDS011;24062;47.480;8.768;2022-11-11T06:11:19;19.37;;;14.07;;
38264;SDS011;24062;47.480;8.768;2022-11-11T06:13:46;19.37;;;15.10;;
38264;SDS011;24062;47.480;8.768;2022-11-11T06:16:13;21.10;;;14.97;;
38264;SDS011;24062;47.480;8.768;2022-11-11T06:18:40;17.53;;;14.53;;
38264;SDS011;24062;47.480;8.768;2022-11-11T06:21:07;21.87;;;14.67;;
38264;SDS011;24062;47.480;8.768;2022-11-11T06:23:35;20.60;;;14.83;;
38264;SDS011;24062;47.480;8.768;2022-11-11T06:26:02;22.30;;;15.27;;
38264;SDS011;24062;47.480;8.768;2022-11-11T06:28:38;19.97;;;15.40;;
38264;SDS011;24062;47.480;8.768;2022-11-11T06:31:06;20.10;;;13.60;;
38264;SDS011;24062;47.480;8.768;2022-11-11T06:33:34;26.13;;;16.20;;
38264;SDS011;24062;47.480;8.768;2022-11-11T06:36:03;24.10;;;16.27;;
38264;SDS011;24062;47.480;8.768;2022-11-11T06:38:31;23.77;;;16.03;;
38264;SDS011;24062;47.480;8.768;2022-11-11T06:40:58;24.57;;;16.83;;
38264;SDS011;24062;47.480;8.768;2022-11-11T06:43:25;23.23;;;15.40;;
38264;SDS011;24062;47.480;8.768;2022-11-11T06:45:53;28.83;;;14.70;;
38264;SDS011;24062;47.480;8.768;2022-11-11T06:48:21;20.67;;;14.57;;
38264;SDS011;24062;47.480;8.768;2022-11-11T06:50:49;24.13;;;15.37;;
38264;SDS011;24062;47.480;8.768;2022-11-11T06:53:20;21.30;;;15.80;;
38264;SDS011;24062;47.480;8.768;2022-11-11T06:55:50;20.60;;;13.90;;
38264;SDS011;24062;47.480;8.768;2022-11-11T06:58:18;24.10;;;15.50;;
38264;SDS011;24062;47.480;8.768;2022-11-11T07:00:46;20.47;;;15.40;;
38264;SDS011;24062;47.480;8.768;2022-11-11T07:03:16;23.93;;;15.37;;
38264;SDS011;24062;47.480;8.768;2022-11-11T07:05:45;23.30;;;15.20;;
38264;SDS011;24062;47.480;8.768;2022-11-11T07:08:13;21.30;;;16.30;;
38264;SDS011;24062;47.480;8.768;2022-11-11T07:10:42;23.20;;;16.90;;
38264;SDS011;24062;47.480;8.768;2022-11-11T07:13:10;25.20;;;16.63;;
38264;SDS011;24062;47.480;8.768;2022-11-11T07:15:38;25.17;;;15.90;;
38264;SDS011;24062;47.480;8.768;2022-11-11T07:18:05;19.13;;;14.53;;
38264;SDS011;24062;47.480;8.768;2022-11-11T07:20:33;25.30;;;16.50;;
38264;SDS011;24062;47.480;8.768;2022-11-11T07:23:01;26.40;;;16.73;;
38264;SDS011;24062;47.480;8.768;2022-11-11T07:25:28;22.90;;;15.50;;
38264;SDS011;24062;47.480;8.768;2022-11-11T07:27:55;23.07;;;16.37;;
38264;SDS011;24062;47.480;8.768;2022-11-11T07:30:22;25.67;;;15.43;;
38264;SDS011;24062;47.480;8.768;2022-11-11T07:32:50;30.30;;;17.50;;
38264;SDS011;24062;47.480;8.768;2022-11-11T07:35:18;22.83;;;15.63;;
38264;SDS011;24062;47.480;8.768;2022-11-11T07:37:47;22.33;;;16.27;;
38264;SDS011;24062;47.480;8.768;2022-11-11T07:40:15;22.13;;;17.97;;
38264;SDS011;24062;47.480;8.768;2022-11-11T07:42:43;22.63;;;17.03;;
38264;SDS011;24062;47.480;8.768;2022-11-11T07:45:10;21.97;;;15.53;;
38264;SDS011;24062;47.480;8.768;2022-11-11T07:47:38;24.30;;;14.97;;
38264;SDS011;24062;47.480;8.768;2022-11-11T07:50:08;21.67;;;15.03;;
38264;SDS011;24062;47.480;8.768;2022-11-11T07:52:36;18.67;;;14.87;;
38264;SDS011;24062;47.480;8.768;2022-11-11T07:55:04;21.20;;;16.27;;
38264;SDS011;24062;47.480;8.768;2022-11-11T07:57:32;21.20;;;15.23;;
38264;SDS011;24062;47.480;8.768;2022-11-11T07:59:59;21.40;;;15.77;;
38264;SDS011;24062;47.480;8.768;2022-11-11T08:02:26;17.97;;;14.57;;
38264;SDS011;24062;47.480;8.768;2022-11-11T08:04:53;22.07;;;16.20;;
38264;SDS011;24062;47.480;8.768;2022-11-11T08:07:20;18.67;;;15.10;;
38264;SDS011;24062;47.480;8.768;2022-11-11T08:09:46;23.60;;;17.80;;
38264;SDS011;24062;47.480;8.768;2022-11-11T08:12:15;25.90;;;16.30;;
38264;SDS011;24062;47.480;8.768;2022-11-11T08:14:59;20.60;;;16.53;;
38264;SDS011;24062;47.480;8.768;2022-11-11T08:17:26;19.60;;;15.57;;
38264;SDS011;24062;47.480;8.768;2022-11-11T08:19:53;22.90;;;16.90;;
38264;SDS011;24062;47.480;8.768;2022-11-11T08:22:19;21.67;;;15.13;;
38264;SDS011;24062;47.480;8.768;2022-11-11T08:24:46;17.37;;;14.40;;
38264;SDS011;24062;47.480;8.768;2022-11-11T08:27:14;24.07;;;14.93;;
38264;SDS011;24062;47.480;8.768;2022-11-11T08:29:41;20.47;;;15.43;;
38264;SDS011;24062;47.480;8.768;2022-11-11T08:32:08;24.50;;;17.20;;
38264;SDS011;24062;47.480;8.768;2022-11-11T08:34:35;22.07;;;15.67;;
38264;SDS011;24062;47.480;8.768;2022-11-11T08:37:02;21.83;;;16.07;;
38264;SDS011;24062;47.480;8.768;2022-11-11T08:39:29;26.57;;;15.47;;
38264;SDS011;24062;47.480;8.768;2022-11-11T08:41:56;21.80;;;16.03;;
38264;SDS011;24062;47.480;8.768;2022-11-11T08:44:24;18.53;;;14.73;;
38264;SDS011;24062;47.480;8.768;2022-11-11T08:46:51;18.57;;;15.30;;
38264;SDS011;24062;47.480;8.768;2022-11-11T08:49:18;22.67;;;16.47;;
38264;SDS011;24062;47.480;8.768;2022-11-11T08:51:45;22.37;;;16.00;;
38264;SDS011;24062;47.480;8.768;2022-11-11T08:54:12;16.57;;;13.47;;
38264;SDS011;24062;47.480;8.768;2022-11-11T08:56:39;18.77;;;15.17;;
38264;SDS011;24062;47.480;8.768;2022-11-11T08:59:06;25.33;;;15.40;;
38264;SDS011;24062;47.480;8.768;2022-11-11T09:01:35;21.33;;;15.37;;
38264;SDS011;24062;47.480;8.768;2022-11-11T09:04:02;18.13;;;14.50;;
38264;SDS011;24062;47.480;8.768;2022-11-11T09:06:29;22.50;;;14.30;;
38264;SDS011;24062;47.480;8.768;2022-11-11T09:08:56;18.50;;;14.40;;
38264;SDS011;24062;47.480;8.768;2022-11-11T09:11:23;18.17;;;14.27;;
38264;SDS011;24062;47.480;8.768;2022-11-11T09:13:50;18.20;;;14.00;;
38264;SDS011;24062;47.480;8.768;2022-11-11T09:16:17;18.87;;;14.07;;
38264;SDS011;24062;47.480;8.768;2022-11-11T09:18:46;15.70;;;13.80;;
38264;SDS011;24062;47.480;8.768;2022-11-11T09:21:13;46.10;;;18.27;;
38264;SDS011;24062;47.480;8.768;2022-11-11T09:23:40;18.97;;;14.40;;
38264;SDS011;24062;47.480;8.768;2022-11-11T09:26:06;17.33;;;12.50;;
38264;SDS011;24062;47.480;8.768;2022-11-11T09:28:33;14.57;;;12.00;;
38264;SDS011;24062;47.480;8.768;2022-11-11T09:31:00;12.50;;;11.17;;
38264;SDS011;24062;47.480;8.768;2022-11-11T09:33:27;15.30;;;12.10;;
38264;SDS011;24062;47.480;8.768;2022-11-11T09:35:57;15.27;;;12.67;;
38264;SDS011;24062;47.480;8.768;2022-11-11T09:38:25;15.30;;;13.07;;
38264;SDS011;24062;47.480;8.768;2022-11-11T09:40:55;14.00;;;11.50;;
38264;SDS011;24062;47.480;8.768;2022-11-11T09:43:33;14.40;;;11.97;;
38264;SDS011;24062;47.480;8.768;2022-11-11T09:46:14;13.47;;;12.07;;
38264;SDS011;24062;47.480;8.768;2022-11-11T09:49:00;13.37;;;12.07;;
38264;SDS011;24062;47.480;8.768;2022-11-11T09:51:39;11.97;;;10.77;;
38264;SDS011;24062;47.480;8.768;2022-11-11T09:54:13;13.97;;;10.57;;
38264;SDS011;24062;47.480;8.768;2022-11-11T09:56:44;12.17;;;10.97;;
38264;SDS011;24062;47.480;8.768;2022-11-11T09:59:13;13.00;;;11.43;;
38264;SDS011;24062;47.480;8.768;2022-11-11T10:01:43;12.30;;;11.10;;
38264;SDS011;24062;47.480;8.768;2022-11-11T10:04:21;10.77;;;9.67;;
38264;SDS011;24062;47.480;8.768;2022-11-11T10:06:59;13.40;;;10.47;;
38264;SDS011;24062;47.480;8.768;2022-11-11T10:09:32;11.33;;;10.23;;
38264;SDS011;24062;47.480;8.768;2022-11-11T10:12:07;11.50;;;10.37;;
38264;SDS011;24062;47.480;8.768;2022-11-11T10:14:38;12.90;;;11.00;;
38264;SDS011;24062;47.480;8.768;2022-11-11T10:17:13;12.27;;;9.50;;
38264;SDS011;24062;47.480;8.768;2022-11-11T10:19:52;10.77;;;9.67;;
38264;SDS011;24062;47.480;8.768;2022-11-11T10:22:30;10.03;;;9.00;;
38264;SDS011;24062;47.480;8.768;2022-11-11T10:25:03;10.03;;;9.00;;
38264;SDS011;24062;47.480;8.768;2022-11-11T10:27:33;11.60;;;9.80;;
38264;SDS011;24062;47.480;8.768;2022-11-11T10:30:03;11.43;;;10.10;;
38264;SDS011;24062;47.480;8.768;2022-11-11T10:32:51;10.27;;;9.37;;
38264;SDS011;24062;47.480;8.768;2022-11-11T10:35:22;9.87;;;8.87;;
38264;SDS011;24062;47.480;8.768;2022-11-11T10:37:54;10.07;;;9.03;;
38264;SDS011;24062;47.480;8.768;2022-11-11T10:40:27;11.37;;;8.90;;
38264;SDS011;24062;47.480;8.768;2022-11-11T10:42:59;10.20;;;9.20;;
38264;SDS011;24062;47.480;8.768;2022-11-11T10:45:27;10.10;;;9.10;;
38264;SDS011;24062;47.480;8.768;2022-11-11T10:48:01;9.00;;;8.20;;
38264;SDS011;24062;47.480;8.768;2022-11-11T10:50:33;12.30;;;9.63;;
38264;SDS011;24062;47.480;8.768;2022-11-11T10:53:05;10.63;;;9.57;;
38264;SDS011;24062;47.480;8.768;2022-11-11T10:55:39;9.87;;;8.83;;
38264;SDS011;24062;47.480;8.768;2022-11-11T10:58:14;9.50;;;8.50;;
38264;SDS011;24062;47.480;8.768;2022-11-11T11:00:46;10.40;;;9.40;;
38264;SDS011;24062;47.480;8.768;2022-11-11T11:03:19;10.30;;;9.27;;
38264;SDS011;24062;47.480;8.768;2022-11-11T11:05:50;10.07;;;9.07;;
38264;SDS011;24062;47.480;8.768;2022-11-11T11:08:23;10.63;;;9.63;;
38264;SDS011;24062;47.480;8.768;2022-11-11T11:10:55;9.77;;;8.87;;
38264;SDS011;24062;47.480;8.768;2022-11-11T11:13:26;10.60;;;9.60;;
38264;SDS011;24062;47.480;8.768;2022-11-11T11:15:58;11.07;;;9.00;;
38264;SDS011;24062;47.480;8.768;2022-11-11T11:18:29;10.07;;;8.93;;
38264;SDS011;24062;47.480;8.768;2022-11-11T11:20:57;9.97;;;8.97;;
38264;SDS011;24062;47.480;8.768;2022-11-11T11:23:37;8.43;;;7.70;;
38264;SDS011;24062;47.480;8.768;2022-11-11T11:26:06;9.47;;;8.40;;
38264;SDS011;24062;47.480;8.768;2022-11-11T11:28:33;9.70;;;8.60;;
38264;SDS011;24062;47.480;8.768;2022-11-11T11:31:01;9.40;;;8.50;;
38264;SDS011;24062;47.480;8.768;2022-11-11T11:33:49;10.10;;;9.10;;
38264;SDS011;24062;47.480;8.768;2022-11-11T11:36:19;8.70;;;7.90;;
38264;SDS011;24062;47.480;8.768;2022-11-11T11:38:48;8.87;;;7.83;;
38264;SDS011;24062;47.480;8.768;2022-11-11T11:41:16;7.97;;;7.27;;
38264;SDS011;24062;47.480;8.768;2022-11-11T11:43:45;9.00;;;8.23;;
38264;SDS011;24062;47.480;8.768;2022-11-11T11:46:17;7.13;;;6.43;;
38264;SDS011;24062;47.480;8.768;2022-11-11T11:51:38;7.90;;;7.20;;
38264;SDS011;24062;47.480;8.768;2022-11-11T11:57:07;8.13;;;7.30;;
38264;SDS011;24062;47.480;8.768;2022-11-11T12:00:01;8.20;;;7.50;;
38264;SDS011;24062;47.480;8.768;2022-11-11T12:02:34;7.93;;;7.20;;
38264;SDS011;24062;47.480;8.768;2022-11-11T12:05:17;10.60;;;9.53;;
38264;SDS011;24062;47.480;8.768;2022-11-11T12:07:54;10.43;;;9.40;;
38264;SDS011;24062;47.480;8.768;2022-11-11T12:10:38;9.73;;;8.57;;
38264;SDS011;24062;47.480;8.768;2022-11-11T12:13:15;10.67;;;9.67;;
38264;SDS011;24062;47.480;8.768;2022-11-11T12:15:50;11.03;;;10.03;;
38264;SDS011;24062;47.480;8.768;2022-11-11T12:18:30;11.67;;;10.47;;
38264;SDS011;24062;47.480;8.768;2022-11-11T12:21:07;11.97;;;10.00;;
38264;SDS011;24062;47.480;8.768;2022-11-11T12:23:41;12.67;;;10.57;;
38264;SDS011;24062;47.480;8.768;2022-11-11T12:26:20;10.93;;;9.93;;
38264;SDS011;24062;47.480;8.768;2022-11-11T12:29:02;11.20;;;9.97;;
38264;SDS011;24062;47.480;8.768;2022-11-11T12:31:59;11.30;;;10.10;;
38264;SDS011;24062;47.480;8.768;2022-11-11T12:34:46;12.57;;;10.70;;
38264;SDS011;24062;47.480;8.768;2022-11-11T12:37:29;11.60;;;10.17;;
38264;SDS011;24062;47.480;8.768;2022-11-11T12:40:11;10.00;;;9.10;;
38264;SDS011;24062;47.480;8.768;2022-11-11T12:42:51;11.73;;;10.53;;
38264;SDS011;24062;47.480;8.768;2022-11-11T12:45:30;12.40;;;11.10;;
38264;SDS011;24062;47.480;8.768;2022-11-11T12:48:02;13.43;;;10.87;;
38264;SDS011;24062;47.480;8.768;2022-11-11T12:50:42;14.63;;;12.43;;
38264;SDS011;24062;47.480;8.768;2022-11-11T12:53:19;13.50;;;12.13;;
38264;SDS011;24062;47.480;8.768;2022-11-11T12:55:56;12.07;;;10.73;;
38264;SDS011;24062;47.480;8.768;2022-11-11T12:58:34;16.17;;;13.90;;
38264;SDS011;24062;47.480;8.768;2022-11-11T13:01:14;14.07;;;12.57;;
38264;SDS011;24062;47.480;8.768;2022-11-11T13:03:49;17.60;;;12.23;;
38264;SDS011;24062;47.480;8.768;2022-11-11T13:06:30;14.10;;;12.60;;
38264;SDS011;24062;47.480;8.768;2022-11-11T13:09:13;12.70;;;11.43;;
38264;SDS011;24062;47.480;8.768;2022-11-11T13:11:57;12.70;;;11.40;;
38264;SDS011;24062;47.480;8.768;2022-11-11T13:14:45;12.80;;;10.70;;
38264;SDS011;24062;47.480;8.768;2022-11-11T13:17:20;14.73;;;13.10;;
38264;SDS011;24062;47.480;8.768;2022-11-11T13:19:48;14.03;;;12.13;;
38264;SDS011;24062;47.480;8.768;2022-11-11T13:22:20;15.90;;;12.60;;
38264;SDS011;24062;47.480;8.768;2022-11-11T13:24:48;16.20;;;12.83;;
38264;SDS011;24062;47.480;8.768;2022-11-11T13:27:17;17.30;;;13.40;;
38264;SDS011;24062;47.480;8.768;2022-11-11T13:30:02;17.40;;;14.20;;
38264;SDS011;24062;47.480;8.768;2022-11-11T13:32:46;17.13;;;14.37;;
38264;SDS011;24062;47.480;8.768;2022-11-11T13:35:19;18.63;;;13.40;;
38264;SDS011;24062;47.480;8.768;2022-11-11T13:37:48;17.27;;;13.60;;
38264;SDS011;24062;47.480;8.768;2022-11-11T13:43:13;19.07;;;13.80;;
38264;SDS011;24062;47.480;8.768;2022-11-11T13:45:48;15.50;;;13.50;;
38264;SDS011;24062;47.480;8.768;2022-11-11T13:48:18;20.50;;;14.30;;
38264;SDS011;24062;47.480;8.768;2022-11-11T13:50:51;16.67;;;13.90;;
38264;SDS011;24062;47.480;8.768;2022-11-11T13:53:26;18.20;;;13.80;;
38264;SDS011;24062;47.480;8.768;2022-11-11T13:55:59;18.20;;;14.33;;
38264;SDS011;24062;47.480;8.768;2022-11-11T13:58:28;18.73;;;14.33;;
38264;SDS011;24062;47.480;8.768;2022-11-11T14:01:00;21.17;;;14.80;;
38264;SDS011;24062;47.480;8.768;2022-11-11T14:03:32;14.60;;;12.70;;
38264;SDS011;24062;47.480;8.768;2022-11-11T14:09:09;18.73;;;14.60;;
38264;SDS011;24062;47.480;8.768;2022-11-11T14:11:36;16.57;;;13.97;;
38264;SDS011;24062;47.480;8.768;2022-11-11T14:17:12;18.03;;;13.20;;
38264;SDS011;24062;47.480;8.768;2022-11-11T14:19:41;18.83;;;13.50;;
38264;SDS011;24062;47.480;8.768;2022-11-11T14:22:27;18.47;;;14.97;;
38264;SDS011;24062;47.480;8.768;2022-11-11T14:25:08;17.60;;;14.53;;
38264;SDS011;24062;47.480;8.768;2022-11-11T14:27:39;19.63;;;15.40;;
38264;SDS011;24062;47.480;8.768;2022-11-11T14:30:11;16.70;;;13.97;;
38264;SDS011;24062;47.480;8.768;2022-11-11T14:33:01;17.90;;;14.43;;
38264;SDS011;24062;47.480;8.768;2022-11-11T14:35:35;16.00;;;14.10;;
38264;SDS011;24062;47.480;8.768;2022-11-11T14:40:53;18.33;;;13.90;;
38264;SDS011;24062;47.480;8.768;2022-11-11T14:43:34;20.93;;;15.80;;
38264;SDS011;24062;47.480;8.768;2022-11-11T14:46:08;19.03;;;14.63;;
38264;SDS011;24062;47.480;8.768;2022-11-11T14:48:49;18.50;;;14.30;;
38264;SDS011;24062;47.480;8.768;2022-11-11T14:57:03;19.70;;;14.80;;
38264;SDS011;24062;47.480;8.768;2022-11-11T14:59:45;20.37;;;15.23;;
38264;SDS011;24062;47.480;8.768;2022-11-11T15:02:18;20.97;;;15.33;;
38264;SDS011;24062;47.480;8.768;2022-11-11T15:04:51;20.70;;;14.83;;
38264;SDS011;24062;47.480;8.768;2022-11-11T15:07:24;17.23;;;14.63;;
38264;SDS011;24062;47.480;8.768;2022-11-11T15:10:12;21.77;;;15.23;;
38264;SDS011;24062;47.480;8.768;2022-11-11T15:13:01;19.90;;;15.77;;
38264;SDS011;24062;47.480;8.768;2022-11-11T15:15:49;21.40;;;15.13;;
38264;SDS011;24062;47.480;8.768;2022-11-11T15:18:27;17.43;;;13.80;;
38264;SDS011;24062;47.480;8.768;2022-11-11T15:21:16;23.23;;;15.60;;